Time;durP1;ratioP1;P1;durP2;ratioP2;P2;SDS_P1;SDS_P2;PMS_P1;PMS_P2;Temp;Humidity;BMP_temperature;BMP_pressure;BME280_temperature;BME280_humidity;BME280_pressure;Samples;Min_cycle;Max_cycle;Signal;HPM_P1;HPM_P2
2021/10/02 00:01:50;;;;;;;3.40;2.10;;;;;;;13.39;58.63;100141.84;8561334;34;20385;-76
2021/10/02 00:34:12;;;;;;;2.90;2.28;;;;;;;12.16;66.04;100149.78;8679343;33;21306;-76
2021/10/02 00:44:40;;;;;;;3.08;2.40;;;;;;;11.49;70.02;100181.78;8679313;33;20194;-77
2021/10/02 00:49:44;;;;;;;5.05;3.00;;;;;;;11.03;75.32;100164.25;8680899;33;20148;-76
2021/10/02 00:54:50;;;;;;;5.75;3.05;;;;;;;10.37;79.31;100172.53;8680112;33;20152;-76
2021/10/02 00:59:54;;;;;;;8.43;3.50;;;;;;;10.34;81.54;100159.38;8670291;33;20244;-76
2021/10/02 01:05:43;;;;;;;4.70;3.38;;;;;;;10.27;83.70;100152.78;8661573;33;20242;-75
2021/10/02 01:10:56;;;;;;;6.00;3.50;;;;;;;10.33;84.70;100152.28;8660964;33;20420;-75
2021/10/02 01:16:04;;;;;;;7.60;3.70;;;;;;;10.41;85.86;100145.41;8659505;33;20528;-75
2021/10/02 01:21:47;;;;;;;7.38;4.05;;;;;;;10.49;86.39;100124.16;8661382;33;20375;-75
2021/10/02 01:27:19;;;;;;;6.88;3.83;;;;;;;10.63;87.03;100131.03;8660607;33;21536;-75
2021/10/02 01:32:30;;;;;;;10.07;4.60;;;;;;;10.54;87.53;100127.28;8660915;33;20771;-75
2021/10/02 01:37:54;;;;;;;5.40;4.10;;;;;;;10.53;87.89;100125.56;8660298;33;20148;-75
2021/10/02 01:48:35;;;;;;;5.55;3.90;;;;;;;10.76;87.81;100111.03;8485599;34;20286;-75
2021/10/02 01:53:42;;;;;;;5.68;4.35;;;;;;;10.72;88.12;100112.28;8619061;33;20188;-75
2021/10/02 01:58:46;;;;;;;5.57;4.20;;;;;;;10.84;87.94;100113.06;8659153;33;20606;-75
2021/10/02 02:03:56;;;;;;;6.63;4.40;;;;;;;10.78;88.10;100101.03;8660528;33;20508;-74
2021/10/02 02:09:01;;;;;;;7.13;4.40;;;;;;;10.73;88.03;100102.41;8660740;33;20226;-74
2021/10/02 02:14:05;;;;;;;5.47;3.90;;;;;;;10.86;88.01;100110.22;8660431;33;20962;-74
2021/10/02 02:19:09;;;;;;;4.65;3.67;;;;;;;10.79;88.57;100099.19;8660492;33;21454;-75
2021/10/02 02:24:13;;;;;;;6.15;4.20;;;;;;;10.87;88.32;100093.16;8658701;33;20241;-75
2021/10/02 02:29:16;;;;;;;6.53;4.80;;;;;;;10.88;88.14;100098.38;8660483;33;20149;-75
2021/10/02 02:34:21;;;;;;;4.45;3.95;;;;;;;10.82;87.88;100089.00;8659969;33;20153;-76
2021/10/02 02:39:25;;;;;;;6.47;4.22;;;;;;;10.86;87.95;100091.41;8659630;33;20203;-75
2021/10/02 02:44:29;;;;;;;7.20;4.25;;;;;;;10.75;88.02;100101.28;8659388;33;20307;-76
2021/10/02 02:49:43;;;;;;;6.88;4.65;;;;;;;10.79;88.15;100097.34;8659929;33;20156;-75
2021/10/02 02:55:02;;;;;;;6.78;4.40;;;;;;;10.72;88.15;100089.94;8658963;33;20169;-76
2021/10/02 03:00:09;;;;;;;5.45;4.00;;;;;;;10.73;87.96;100087.13;8660191;33;20176;-75
2021/10/02 03:05:14;;;;;;;7.20;4.72;;;;;;;10.74;88.11;100088.81;8659334;33;20188;-76
2021/10/02 03:10:18;;;;;;;8.02;5.00;;;;;;;10.67;88.08;100087.66;8659126;33;20599;-77
2021/10/02 03:15:22;;;;;;;7.75;5.05;;;;;;;10.64;88.22;100077.19;8658100;33;20342;-76
2021/10/02 03:20:27;;;;;;;6.75;4.88;;;;;;;10.54;88.07;100092.38;8659787;33;20763;-76
2021/10/02 03:25:33;;;;;;;6.53;4.47;;;;;;;10.33;88.82;100098.56;8658788;33;20253;-76
2021/10/02 03:30:36;;;;;;;6.22;5.10;;;;;;;10.48;88.33;100096.44;8658915;33;20188;-76
2021/10/02 03:35:41;;;;;;;8.50;5.13;;;;;;;10.47;88.30;100093.88;8658562;33;20184;-75
2021/10/02 03:40:45;;;;;;;6.72;5.72;;;;;;;10.43;88.75;100092.44;8658732;33;20446;-76
2021/10/02 03:45:48;;;;;;;8.90;4.47;;;;;;;10.32;89.21;100096.03;8658007;33;20978;-76
2021/10/02 03:50:53;;;;;;;4.07;3.67;;;;;;;10.39;89.41;100083.78;8656563;33;20452;-75
2021/10/02 03:55:57;;;;;;;3.85;3.30;;;;;;;10.30;89.85;100090.78;8657640;33;20392;-76
2021/10/02 04:01:00;;;;;;;4.55;3.33;;;;;;;10.49;89.66;100079.34;8657711;33;20191;-76
2021/10/02 04:06:04;;;;;;;3.20;2.80;;;;;;;10.74;88.87;100070.00;8657483;33;20183;-76
2021/10/02 04:11:07;;;;;;;6.15;3.30;;;;;;;10.79;88.85;100070.47;8657291;33;20158;-76
2021/10/02 04:16:10;;;;;;;3.70;3.25;;;;;;;10.77;89.51;100075.13;8657102;33;20389;-76
2021/10/02 04:21:15;;;;;;;4.18;2.95;;;;;;;10.77;89.16;100071.59;8657572;33;20516;-76
2021/10/02 04:26:18;;;;;;;3.08;2.50;;;;;;;10.98;88.90;100076.94;8658165;33;20322;-76
2021/10/02 04:31:21;;;;;;;4.07;3.10;;;;;;;10.96;88.61;100079.75;8657066;33;20267;-76
2021/10/02 04:36:26;;;;;;;3.83;2.87;;;;;;;10.99;88.52;100079.47;8660815;33;20520;-77
2021/10/02 04:41:29;;;;;;;4.95;3.47;;;;;;;11.04;88.72;100065.63;8660893;33;20180;-77
2021/10/02 04:46:32;;;;;;;5.57;3.95;;;;;;;11.13;88.98;100072.91;8661627;33;20180;-77
2021/10/02 04:51:37;;;;;;;6.22;4.18;;;;;;;11.10;88.59;100065.09;8661842;33;20176;-77
2021/10/02 04:56:40;;;;;;;6.00;4.63;;;;;;;11.07;88.37;100065.34;8663746;33;20407;-76
2021/10/02 05:01:43;;;;;;;6.57;4.93;;;;;;;11.01;88.62;100068.59;8661796;33;20460;-77
2021/10/02 05:06:48;;;;;;;9.20;5.68;;;;;;;10.91;88.51;100057.78;8661401;33;20554;-77
2021/10/02 05:11:51;;;;;;;7.75;5.95;;;;;;;10.98;88.51;100071.56;8661000;33;20194;-76
2021/10/02 05:16:54;;;;;;;7.40;5.15;;;;;;;10.97;88.49;100065.34;8660749;33;20268;-77
2021/10/02 05:21:59;;;;;;;9.20;5.57;;;;;;;11.02;88.36;100065.75;8661069;33;20443;-77
2021/10/02 05:27:03;;;;;;;8.55;5.88;;;;;;;11.12;88.08;100071.22;8661102;33;20188;-77
2021/10/02 05:32:09;;;;;;;6.90;5.53;;;;;;;11.21;88.26;100072.22;8661089;33;20141;-77
2021/10/02 05:37:14;;;;;;;7.63;5.53;;;;;;;11.17;88.15;100082.41;8659990;33;20192;-76
2021/10/02 05:42:17;;;;;;;6.57;5.55;;;;;;;11.12;88.13;100090.03;8661386;33;20715;-76
2021/10/02 05:47:20;;;;;;;7.65;5.15;;;;;;;11.08;87.87;100093.09;8660206;33;21510;-76
2021/10/02 05:52:25;;;;;;;7.20;5.53;;;;;;;11.05;87.85;100099.56;8660718;33;20490;-76
2021/10/02 05:57:28;;;;;;;5.95;5.35;;;;;;;11.12;87.49;100092.72;8659615;33;20180;-76
2021/10/02 06:02:33;;;;;;;6.93;4.85;;;;;;;11.15;87.50;100089.75;8660874;33;20208;-76
2021/10/02 06:07:37;;;;;;;8.65;5.18;;;;;;;11.03;87.06;100096.19;8660023;33;20187;-75
2021/10/02 06:12:40;;;;;;;6.75;5.40;;;;;;;11.19;86.82;100096.59;8661299;33;20165;-75
2021/10/02 06:17:43;;;;;;;6.22;5.32;;;;;;;11.19;86.81;100101.09;8660518;33;20319;-75
2021/10/02 06:22:48;;;;;;;8.23;5.53;;;;;;;11.28;86.68;100108.34;8661084;33;20663;-76
2021/10/02 06:27:51;;;;;;;7.90;5.50;;;;;;;11.19;86.57;100110.03;8658945;33;20189;-76
2021/10/02 06:32:54;;;;;;;10.07;5.80;;;;;;;11.31;86.39;100107.25;8660530;33;20188;-77
2021/10/02 06:37:58;;;;;;;8.95;5.78;;;;;;;11.31;86.05;100108.09;8660473;33;20242;-76
2021/10/02 06:43:01;;;;;;;8.52;6.15;;;;;;;11.32;86.07;100095.47;8660624;33;20190;-76
2021/10/02 06:48:05;;;;;;;7.20;5.57;;;;;;;11.49;85.91;100094.81;8658675;33;20228;-76
2021/10/02 06:53:10;;;;;;;6.72;5.45;;;;;;;11.55;85.90;100098.81;8660170;33;20727;-75
2021/10/02 06:58:13;;;;;;;7.15;5.53;;;;;;;11.54;85.60;100097.94;8658488;33;20661;-75
2021/10/02 07:03:16;;;;;;;7.00;5.10;;;;;;;11.54;85.46;100091.72;8659791;33;20700;-75
2021/10/02 07:08:20;;;;;;;8.02;5.35;;;;;;;11.56;85.28;100106.75;8658985;33;20425;-75
2021/10/02 07:13:23;;;;;;;7.90;4.88;;;;;;;11.45;85.22;100106.84;8659447;33;20524;-75
2021/10/02 07:18:26;;;;;;;8.10;4.40;;;;;;;11.47;85.08;100107.56;8659483;33;20198;-76
2021/10/02 07:23:32;;;;;;;6.50;4.15;;;;;;;11.41;85.16;100097.34;8657562;33;20279;-75
2021/10/02 07:28:36;;;;;;;6.53;4.50;;;;;;;11.23;85.95;100094.47;8658565;33;20230;-75
2021/10/02 07:33:39;;;;;;;5.10;3.95;;;;;;;11.33;86.21;100105.28;8658915;33;21626;-76
2021/10/02 07:38:44;;;;;;;5.35;3.70;;;;;;;11.52;85.70;100117.91;8659399;33;20206;-75
2021/10/02 07:43:55;;;;;;;5.72;4.47;;;;;;;11.57;85.77;100107.59;8654954;33;20188;-76
2021/10/02 07:48:59;;;;;;;7.25;4.63;;;;;;;11.36;86.54;100105.00;8657264;33;20196;-76
2021/10/02 07:54:05;;;;;;;7.40;5.10;;;;;;;11.46;86.54;100109.41;8656235;33;21006;-76
2021/10/02 07:59:08;;;;;;;5.32;4.63;;;;;;;11.56;86.13;100111.28;8657215;33;20725;-74
2021/10/02 08:04:11;;;;;;;7.93;5.15;;;;;;;11.40;86.29;100107.25;8658066;33;21466;-75
2021/10/02 08:09:21;;;;;;;5.88;4.75;;;;;;;11.46;86.36;100106.72;8645812;33;20720;-75
2021/10/02 08:14:24;;;;;;;5.55;4.93;;;;;;;11.52;86.34;100104.47;8629187;33;20150;-75
2021/10/02 08:19:34;;;;;;;7.50;6.10;;;;;;;11.71;86.85;100099.13;8605650;33;20156;-75
2021/10/02 08:24:40;;;;;;;6.50;5.78;;;;;;;11.58;87.00;100091.31;8604975;33;20339;-75
2021/10/02 08:29:43;;;;;;;8.82;6.22;;;;;;;11.64;87.29;100098.00;8605476;33;20219;-75
2021/10/02 08:34:46;;;;;;;7.63;6.40;;;;;;;11.64;87.01;100096.16;8641724;33;20416;-75
2021/10/02 08:39:51;;;;;;;6.35;5.15;;;;;;;11.89;86.76;100091.22;8662127;33;20416;-75
2021/10/02 08:44:55;;;;;;;6.82;5.03;;;;;;;12.10;86.22;100091.13;8657661;33;20195;-75
2021/10/02 08:49:59;;;;;;;5.15;4.60;;;;;;;12.23;86.11;100090.81;8662135;33;20215;-76
2021/10/02 08:55:06;;;;;;;4.80;4.22;;;;;;;12.06;84.86;100100.44;8661471;33;20995;-76
2021/10/02 09:00:14;;;;;;;4.50;3.75;;;;;;;12.04;85.39;100081.75;8658802;33;20757;-75
2021/10/02 09:05:20;;;;;;;5.13;3.47;;;;;;;12.00;84.87;100077.63;8658736;33;20177;-76
2021/10/02 09:10:27;;;;;;;3.88;2.80;;;;;;;11.97;84.56;100082.47;8661415;33;21010;-74
2021/10/02 09:15:31;;;;;;;5.10;3.03;;;;;;;12.21;84.86;100077.50;8654695;33;20196;-75
2021/10/02 09:20:34;;;;;;;3.25;2.95;;;;;;;12.26;83.98;100075.25;8661333;33;20617;-75
2021/10/02 09:25:48;;;;;;;5.05;2.95;;;;;;;12.23;83.76;100064.75;8659628;33;20818;-75
2021/10/02 09:31:05;;;;;;;3.50;3.20;;;;;;;12.43;84.24;100067.47;8661502;33;20179;-76
2021/10/02 09:36:19;;;;;;;3.42;3.13;;;;;;;12.44;83.48;100058.38;8661366;33;20219;-75
2021/10/02 09:41:24;;;;;;;5.50;3.38;;;;;;;12.59;83.55;100068.56;8660453;33;20196;-75
2021/10/02 09:46:35;;;;;;;6.18;3.90;;;;;;;12.76;83.78;100058.88;8660287;33;20195;-75
2021/10/02 09:51:40;;;;;;;4.43;3.90;;;;;;;12.94;83.46;100048.16;8661049;33;20149;-76
2021/10/02 09:57:13;;;;;;;5.72;3.83;;;;;;;13.67;83.43;100050.06;8656561;33;20152;-76
2021/10/02 10:02:19;;;;;;;4.93;4.43;;;;;;;14.31;80.65;100040.88;8660057;33;20447;-75
2021/10/02 10:07:24;;;;;;;5.38;4.15;;;;;;;13.81;79.13;100027.94;8660556;33;20298;-76
2021/10/02 10:12:30;;;;;;;4.13;3.42;;;;;;;13.77;80.18;100040.06;8660105;33;20204;-75
2021/10/02 10:17:33;;;;;;;6.32;4.00;;;;;;;13.54;81.29;100026.16;8658989;33;20138;-75
2021/10/02 10:22:38;;;;;;;4.53;3.47;;;;;;;13.61;80.13;100021.84;8660120;33;20629;-75
2021/10/02 10:27:44;;;;;;;3.17;2.70;;;;;;;13.33;77.66;100014.75;8659308;33;20226;-75
2021/10/02 10:33:04;;;;;;;7.00;3.33;;;;;;;13.37;78.39;100011.63;8661050;33;20334;-74
2021/10/02 10:38:10;;;;;;;3.42;2.95;;;;;;;13.51;79.67;100010.28;8658500;33;20191;-75
2021/10/02 10:43:15;;;;;;;4.40;3.05;;;;;;;14.00;80.58;99999.09;8659925;33;20145;-75
2021/10/02 10:48:18;;;;;;;4.45;3.10;;;;;;;14.10;79.33;99983.66;8660579;33;20444;-75
2021/10/02 10:53:23;;;;;;;3.20;2.90;;;;;;;14.30;79.22;99978.91;8659064;33;20514;-76
2021/10/02 10:58:31;;;;;;;4.07;3.58;;;;;;;13.97;78.46;99985.91;8659478;33;20237;-75
2021/10/02 11:03:39;;;;;;;3.53;2.97;;;;;;;13.87;78.98;99981.44;8659248;33;20183;-75
2021/10/02 11:09:00;;;;;;;4.57;2.90;;;;;;;13.30;78.11;99980.81;8659172;33;20246;-75
2021/10/02 11:14:04;;;;;;;3.03;2.30;;;;;;;13.93;78.09;99980.81;8657436;33;20237;-75
2021/10/02 11:19:31;;;;;;;3.97;2.20;;;;;;;14.03;76.06;99971.78;8659540;33;21031;-75
2021/10/02 11:24:39;;;;;;;3.13;1.92;;;;;;;14.26;75.03;99977.50;8652702;33;20950;-76
2021/10/02 11:29:45;;;;;;;2.00;1.88;;;;;;;14.21;75.82;99958.25;8658606;33;20225;-75
2021/10/02 11:35:30;;;;;;;2.97;2.22;;;;;;;14.16;76.12;99939.81;8657489;33;20245;-76
2021/10/02 11:40:51;;;;;;;3.25;2.28;;;;;;;13.87;74.69;99951.72;8649995;33;20237;-76
2021/10/02 11:46:05;;;;;;;2.65;2.20;;;;;;;13.89;76.81;99954.28;8656969;33;20145;-75
2021/10/02 11:51:29;;;;;;;3.45;2.13;;;;;;;13.68;76.92;99941.09;8657668;33;20139;-75
2021/10/02 11:56:34;;;;;;;2.40;2.20;;;;;;;13.74;75.63;99937.81;8655692;33;20149;-76
2021/10/02 12:01:44;;;;;;;2.83;2.60;;;;;;;14.48;79.04;99938.31;8657714;33;20184;-76
2021/10/02 12:06:48;;;;;;;2.40;2.20;;;;;;;14.53;72.52;99933.28;8657906;33;20728;-76
2021/10/02 12:11:52;;;;;;;3.50;2.70;;;;;;;14.77;73.89;99922.59;8657698;33;20133;-76
2021/10/02 12:17:00;;;;;;;2.80;2.30;;;;;;;14.83;73.48;99903.00;8660746;33;20145;-76
2021/10/02 12:22:06;;;;;;;5.95;2.58;;;;;;;15.53;76.83;99895.59;8660284;33;20537;-77
2021/10/02 12:27:15;;;;;;;3.33;2.00;;;;;;;15.56;72.95;99890.69;8657744;33;20200;-76
2021/10/02 12:32:20;;;;;;;3.25;2.38;;;;;;;15.34;73.80;99892.19;8657302;33;20355;-76
2021/10/02 12:37:26;;;;;;;3.83;2.40;;;;;;;15.09;74.72;99882.31;8657692;33;20181;-76
2021/10/02 12:42:35;;;;;;;3.00;2.30;;;;;;;14.65;73.06;99886.06;8657177;33;20172;-76
2021/10/02 12:47:41;;;;;;;1.95;1.85;;;;;;;14.56;74.82;99873.50;8656803;33;20175;-76
2021/10/02 12:52:45;;;;;;;2.78;1.98;;;;;;;14.43;73.88;99852.38;8656969;33;20810;-76
2021/10/02 12:57:49;;;;;;;3.35;2.25;;;;;;;14.58;75.23;99839.91;8660660;33;20177;-76
2021/10/02 13:02:59;;;;;;;7.75;2.88;;;;;;;15.23;76.52;99809.44;8661527;33;20251;-77
2021/10/02 13:08:06;;;;;;;4.63;2.70;;;;;;;16.02;72.22;99793.47;8661997;33;20192;-75
2021/10/02 13:13:11;;;;;;;5.13;2.88;;;;;;;15.61;72.66;99788.16;8661299;33;20189;-76
2021/10/02 13:18:18;;;;;;;3.05;2.75;;;;;;;15.88;73.78;99788.78;8663957;33;20149;-76
2021/10/02 13:23:24;;;;;;;6.50;3.20;;;;;;;15.57;75.29;99786.78;8663627;33;20229;-76
2021/10/02 13:28:29;;;;;;;5.82;2.65;;;;;;;15.33;78.21;99778.66;8661253;33;20246;-77
2021/10/02 13:33:38;;;;;;;4.63;3.63;;;;;;;15.13;74.11;99778.16;8659408;33;20639;-75
2021/10/02 13:38:42;;;;;;;6.85;3.60;;;;;;;15.12;74.94;99771.06;8661705;33;20591;-75
2021/10/02 13:43:55;;;;;;;4.38;3.17;;;;;;;14.99;74.28;99755.34;8660351;33;20199;-76
2021/10/02 13:49:02;;;;;;;3.60;3.30;;;;;;;15.20;75.33;99749.44;8660650;33;21558;-75
2021/10/02 13:54:06;;;;;;;3.40;3.10;;;;;;;15.26;74.67;99730.66;8658720;33;20223;-76
2021/10/02 13:59:09;;;;;;;3.65;3.35;;;;;;;16.35;71.77;99734.59;8660880;33;20251;-75
2021/10/02 14:04:13;;;;;;;3.35;3.05;;;;;;;16.97;74.50;99730.13;8660634;33;20436;-76
2021/10/02 14:09:17;;;;;;;3.03;2.65;;;;;;;16.33;69.24;99714.13;8660474;33;20188;-75
2021/10/02 14:14:20;;;;;;;3.83;2.70;;;;;;;15.75;71.74;99694.53;8659860;33;20258;-75
2021/10/02 14:19:24;;;;;;;3.20;2.90;;;;;;;15.33;73.28;99706.47;8660560;33;20682;-76
2021/10/02 14:24:27;;;;;;;4.88;3.00;;;;;;;15.53;72.56;99690.72;8660229;33;20468;-75
2021/10/02 14:29:30;;;;;;;3.15;2.47;;;;;;;15.93;72.54;99687.03;8660489;33;21012;-75
2021/10/02 14:34:34;;;;;;;3.83;2.67;;;;;;;16.30;69.98;99668.41;8659360;33;20426;-76
2021/10/02 14:39:37;;;;;;;2.60;2.40;;;;;;;16.91;66.27;99654.91;8658249;33;20222;-76
2021/10/02 14:44:41;;;;;;;3.67;2.50;;;;;;;17.85;63.05;99650.69;8659280;33;20237;-76
2021/10/02 14:49:45;;;;;;;2.63;2.20;;;;;;;17.40;61.57;99640.88;8651906;33;20216;-76
2021/10/02 14:54:49;;;;;;;2.70;2.50;;;;;;;16.85;63.99;99640.19;8659449;33;20184;-76
2021/10/02 14:59:53;;;;;;;3.03;2.80;;;;;;;16.45;64.94;99633.22;8659297;33;20661;-76
2021/10/02 15:04:58;;;;;;;2.40;2.00;;;;;;;16.12;65.50;99628.84;8660890;33;20558;-76
2021/10/02 15:10:02;;;;;;;2.20;2.00;;;;;;;15.72;66.30;99623.66;8659924;33;20457;-76
2021/10/02 15:15:07;;;;;;;4.95;2.53;;;;;;;15.66;68.25;99620.66;8658318;33;20180;-76
2021/10/02 15:20:12;;;;;;;3.17;2.25;;;;;;;15.44;67.66;99614.13;8658132;33;20167;-76
2021/10/02 15:25:15;;;;;;;3.00;2.25;;;;;;;15.44;68.55;99613.25;8658492;33;20184;-76
2021/10/02 15:30:18;;;;;;;3.75;2.60;;;;;;;15.60;68.91;99607.78;8658544;33;20307;-77
2021/10/02 15:35:23;;;;;;;4.07;2.35;;;;;;;15.52;67.09;99604.28;8657032;33;20588;-75
2021/10/02 15:40:27;;;;;;;4.57;2.13;;;;;;;15.49;67.72;99591.94;8658438;33;20187;-76
2021/10/02 15:45:30;;;;;;;3.13;2.42;;;;;;;15.41;67.98;99584.72;8657906;33;20180;-75
2021/10/02 15:50:35;;;;;;;3.00;2.22;;;;;;;15.36;67.89;99570.00;8659134;33;20728;-76
2021/10/02 15:55:40;;;;;;;3.22;2.55;;;;;;;15.29;68.46;99580.66;8656105;33;20860;-76
2021/10/02 16:00:46;;;;;;;4.22;3.03;;;;;;;15.30;68.68;99584.19;8658004;33;20145;-76
2021/10/02 16:05:52;;;;;;;3.60;2.95;;;;;;;15.34;69.52;99578.31;8657881;33;20643;-76
2021/10/02 16:10:55;;;;;;;20.73;12.20;;;;;;;15.17;67.48;99558.56;8658178;33;20666;-76
2021/10/02 16:16:00;;;;;;;9.88;7.18;;;;;;;15.23;68.98;99565.13;8657332;33;20538;-75
2021/10/02 16:21:06;;;;;;;3.92;2.97;;;;;;;15.29;70.09;99547.34;8657567;33;20674;-77
2021/10/02 16:26:09;;;;;;;3.17;2.88;;;;;;;15.19;69.93;99548.41;8657499;33;20149;-77
2021/10/02 16:31:15;;;;;;;8.45;4.55;;;;;;;15.09;70.33;99531.53;8660351;33;20200;-77
2021/10/02 16:36:20;;;;;;;7.05;5.32;;;;;;;14.96;69.49;99518.56;8662158;33;20192;-77
2021/10/02 16:41:23;;;;;;;16.20;8.23;;;;;;;14.86;70.01;99501.69;8662901;33;20184;-77
2021/10/02 16:46:27;;;;;;;7.40;5.10;;;;;;;14.73;69.73;99494.13;8661670;33;20152;-76
2021/10/02 16:51:32;;;;;;;5.13;3.90;;;;;;;14.69;70.02;99478.41;8662477;33;20163;-77
2021/10/02 16:56:35;;;;;;;6.75;3.63;;;;;;;14.63;70.24;99450.22;8661977;33;20216;-76
2021/10/02 17:01:38;;;;;;;5.20;3.55;;;;;;;14.54;70.53;99454.81;8662229;33;20198;-77
2021/10/02 17:06:43;;;;;;;4.90;3.10;;;;;;;14.56;70.42;99443.81;8661791;33;20189;-77
2021/10/02 17:11:46;;;;;;;4.05;2.63;;;;;;;14.58;70.38;99441.78;8680638;33;20279;-76
2021/10/02 17:16:49;;;;;;;3.13;2.83;;;;;;;14.55;69.87;99432.19;8661065;33;20618;-77
2021/10/02 17:21:53;;;;;;;5.10;4.38;;;;;;;14.55;69.60;99432.19;8662204;33;20311;-75
2021/10/02 17:26:56;;;;;;;6.10;4.85;;;;;;;14.58;69.61;99406.66;8660610;33;21531;-77
2021/10/02 17:31:59;;;;;;;4.78;3.40;;;;;;;14.58;69.68;99393.16;8660013;33;20129;-77
2021/10/02 17:37:04;;;;;;;6.78;3.90;;;;;;;14.59;69.61;99393.00;8660068;33;20187;-76
2021/10/02 17:42:07;;;;;;;5.57;3.85;;;;;;;14.53;69.15;99396.38;8660003;33;20550;-76
2021/10/02 17:47:10;;;;;;;6.45;3.92;;;;;;;14.65;68.98;99391.44;8659869;33;20202;-77
2021/10/02 17:52:15;;;;;;;6.07;4.85;;;;;;;14.54;69.17;99383.72;8658102;33;20192;-76
2021/10/02 17:57:18;;;;;;;7.45;4.35;;;;;;;14.64;68.22;99375.41;8659681;33;21251;-76
2021/10/02 18:02:21;;;;;;;5.97;4.20;;;;;;;14.67;67.79;99377.75;8660273;33;20193;-76
2021/10/02 18:07:26;;;;;;;4.53;3.25;;;;;;;14.69;66.84;99386.53;8660337;33;20186;-77
2021/10/02 18:12:29;;;;;;;5.50;3.50;;;;;;;14.76;64.22;99371.31;8665992;33;20184;-76
2021/10/02 18:17:32;;;;;;;4.13;3.13;;;;;;;15.09;62.31;99360.31;8659661;33;20191;-76
2021/10/02 18:22:36;;;;;;;2.85;2.17;;;;;;;15.21;61.72;99351.59;8659841;33;20176;-77
2021/10/02 18:27:41;;;;;;;4.68;3.15;;;;;;;15.17;61.23;99349.44;8657461;33;20152;-77
2021/10/02 18:32:44;;;;;;;3.05;2.03;;;;;;;15.29;60.62;99347.16;8659061;33;20209;-77
2021/10/02 18:37:50;;;;;;;3.42;2.17;;;;;;;15.42;60.05;99336.63;8659669;33;20188;-77
2021/10/02 18:42:53;;;;;;;2.67;2.05;;;;;;;15.44;59.74;99334.53;8659570;33;20184;-77
2021/10/02 18:47:56;;;;;;;3.08;2.60;;;;;;;15.47;59.45;99323.38;8659202;33;20184;-76
2021/10/02 18:53:01;;;;;;;3.13;2.20;;;;;;;15.53;59.28;99305.56;8658048;33;20157;-77
2021/10/02 18:58:04;;;;;;;3.15;2.25;;;;;;;15.54;58.96;99302.66;8658235;33;20251;-77
2021/10/02 19:03:08;;;;;;;3.63;2.20;;;;;;;15.60;58.27;99304.63;8659463;33;20819;-77
2021/10/02 19:08:12;;;;;;;4.22;2.05;;;;;;;15.52;58.37;99277.66;8658394;33;20220;-76
2021/10/02 19:13:16;;;;;;;3.30;2.33;;;;;;;15.58;58.36;99278.81;8658121;33;20444;-76
2021/10/02 19:18:19;;;;;;;4.10;2.80;;;;;;;15.64;58.32;99265.38;8656049;33;20617;-77
2021/10/02 19:23:24;;;;;;;3.60;2.35;;;;;;;15.65;58.37;99253.50;8648393;33;20192;-77
2021/10/02 19:28:28;;;;;;;2.90;2.30;;;;;;;15.58;57.78;99249.03;8656237;33;20866;-76
2021/10/02 19:33:31;;;;;;;3.35;1.83;;;;;;;15.72;57.20;99229.25;8655671;33;20255;-76
2021/10/02 19:38:39;;;;;;;3.35;2.08;;;;;;;15.77;57.23;99228.69;8657707;33;20176;-76
2021/10/02 19:43:43;;;;;;;4.47;2.20;;;;;;;15.68;57.76;99222.50;8655580;33;20169;-77
2021/10/02 19:48:47;;;;;;;3.20;2.47;;;;;;;15.47;60.58;99215.97;8657161;33;20176;-76
2021/10/02 19:53:52;;;;;;;3.20;2.20;;;;;;;15.11;62.77;99206.81;8656522;33;20195;-75
2021/10/02 19:58:55;;;;;;;5.22;2.22;;;;;;;14.97;61.89;99200.31;8657029;33;20196;-76
2021/10/02 20:03:59;;;;;;;2.20;1.83;;;;;;;15.22;61.22;99185.59;8658569;33;20183;-76
2021/10/02 20:09:04;;;;;;;3.88;2.45;;;;;;;15.28;60.78;99178.59;8663087;33;20199;-76
2021/10/02 20:14:07;;;;;;;3.40;2.17;;;;;;;15.24;60.31;99155.63;8660781;33;20183;-78
2021/10/02 20:19:10;;;;;;;3.67;2.53;;;;;;;15.44;60.02;99158.66;8662135;33;20334;-77
2021/10/02 20:24:14;;;;;;;2.10;1.90;;;;;;;15.58;59.13;99162.44;8661660;33;20197;-76
2021/10/02 20:29:18;;;;;;;4.07;2.50;;;;;;;15.66;58.35;99143.34;8661684;33;20149;-76
2021/10/02 20:34:21;;;;;;;2.63;2.40;;;;;;;15.83;57.59;99144.84;8661168;33;20192;-76
2021/10/02 20:39:25;;;;;;;4.22;2.50;;;;;;;15.75;57.48;99126.00;8661352;33;20888;-75
2021/10/02 20:44:28;;;;;;;3.03;2.47;;;;;;;15.60;59.55;99125.16;8661461;33;20188;-76
2021/10/02 20:49:31;;;;;;;3.55;2.80;;;;;;;15.26;62.95;99124.66;8663446;33;20971;-76
2021/10/02 20:54:36;;;;;;;5.55;3.03;;;;;;;14.83;64.87;99100.06;8661116;33;20165;-77
2021/10/02 20:59:39;;;;;;;3.78;2.55;;;;;;;14.86;65.28;99106.13;8661223;33;20899;-76
2021/10/02 21:04:44;;;;;;;4.85;3.67;;;;;;;14.78;65.00;99082.72;8661059;33;20182;-77
2021/10/02 21:09:51;;;;;;;5.28;3.92;;;;;;;14.89;64.96;99081.44;8661156;33;20291;-77
2021/10/02 21:14:54;;;;;;;4.82;3.45;;;;;;;14.94;65.40;99060.94;8659023;33;20180;-77
2021/10/02 21:19:57;;;;;;;3.67;3.00;;;;;;;14.70;66.29;99051.22;8661037;33;20985;-75
2021/10/02 21:25:04;;;;;;;4.50;3.03;;;;;;;14.92;65.81;99056.75;8659436;33;20184;-77
2021/10/02 21:30:13;;;;;;;4.78;3.25;;;;;;;14.89;65.66;99052.56;8658908;33;20902;-78
2021/10/02 21:35:19;;;;;;;5.38;3.10;;;;;;;14.54;69.13;99057.63;8603277;33;20211;-77
2021/10/02 21:40:26;;;;;;;5.15;3.20;;;;;;;13.93;75.33;99056.69;8654702;33;21457;-78
2021/10/02 21:45:29;;;;;;;4.28;3.42;;;;;;;13.88;72.73;99032.94;8658737;33;20657;-76
2021/10/02 21:50:32;;;;;;;4.90;3.20;;;;;;;14.16;74.08;99021.59;8660172;33;20257;-77
2021/10/02 21:55:40;;;;;;;5.35;3.78;;;;;;;13.99;73.80;99002.00;8658108;33;20334;-77
2021/10/02 22:01:22;;;;;;;4.57;3.50;;;;;;;14.08;73.42;98997.38;8661511;33;20191;-76
2021/10/02 22:06:28;;;;;;;6.95;5.05;;;;;;;14.11;73.48;98987.03;8659232;33;20195;-77
2021/10/02 22:11:33;;;;;;;6.20;3.78;;;;;;;14.09;73.00;98983.66;8664075;33;20918;-76
2021/10/02 22:16:38;;;;;;;5.20;3.78;;;;;;;14.15;72.93;98968.59;8663757;33;20253;-77
2021/10/02 22:21:42;;;;;;;5.47;3.70;;;;;;;14.28;72.50;98952.63;8658779;33;20208;-79
2021/10/02 22:26:53;;;;;;;6.90;3.83;;;;;;;14.53;71.75;98944.31;8656397;33;20972;-78
2021/10/02 22:31:57;;;;;;;5.88;3.58;;;;;;;14.63;70.17;98944.88;8659390;33;20662;-77
2021/10/02 22:37:01;;;;;;;4.05;3.55;;;;;;;14.81;69.88;98945.38;8658414;33;20620;-77
2021/10/02 22:42:06;;;;;;;6.95;4.03;;;;;;;15.09;69.25;98951.97;8658676;33;20685;-77
2021/10/02 22:47:09;;;;;;;4.82;3.67;;;;;;;15.11;69.09;98944.47;8657765;33;20279;-77
2021/10/02 22:52:12;;;;;;;6.40;4.10;;;;;;;14.94;68.82;98933.88;8657938;33;21560;-77
2021/10/02 22:57:18;;;;;;;4.18;3.60;;;;;;;15.10;68.56;98942.81;8658355;33;20248;-77
2021/10/02 23:02:21;;;;;;;5.28;3.72;;;;;;;15.25;68.04;98928.25;8658617;33;20690;-78
2021/10/02 23:07:25;;;;;;;6.18;3.25;;;;;;;15.39;67.30;98931.97;8658215;33;20175;-78
2021/10/02 23:12:29;;;;;;;6.93;3.85;;;;;;;15.47;67.13;98928.31;8656406;33;20227;-77
2021/10/02 23:17:34;;;;;;;4.85;3.38;;;;;;;15.39;66.71;98909.50;8657446;33;21241;-77
2021/10/02 23:22:38;;;;;;;6.68;3.75;;;;;;;15.61;66.32;98900.34;8656422;33;20189;-77
2021/10/02 23:27:44;;;;;;;5.18;3.65;;;;;;;15.69;65.57;98899.41;8658111;33;20249;-77
2021/10/02 23:32:48;;;;;;;5.15;3.60;;;;;;;15.79;65.23;98891.78;8656135;33;21521;-77
2021/10/02 23:37:53;;;;;;;7.00;3.72;;;;;;;15.84;65.34;98891.19;8655543;33;20180;-76
2021/10/02 23:42:57;;;;;;;4.30;3.13;;;;;;;15.87;64.91;98882.69;8657559;33;20635;-81
2021/10/02 23:48:00;;;;;;;6.22;4.00;;;;;;;15.84;64.70;98864.94;8657436;33;20685;-77
2021/10/02 23:53:06;;;;;;;5.05;3.38;;;;;;;15.96;64.75;98872.53;8655833;33;20199;-77
2021/10/02 23:58:11;;;;;;;4.88;3.63;;;;;;;16.03;63.87;98874.28;8655814;33;20536;-78
